Airfield :
LOGIN :

Register | Disclaimer

   EN    FR    IT 

 










Legend :    VFR   Marginal VFR   IFR   Intensive IFR   Very Intensive IFR
Visi :
Ceiling :
>= 8 km
>= 3000ft
5 to 8 km
1000 to 3000 ft
1500m to 5 km
500 to 1000 ft
800 to 1500m
200 to 500 ft
< 800m
< 200 ft
Symbols :   Thunderstorms  Fog  Heavy snow  Heavy precipitations  Wind > 20 kt
SIGMETs :     Misc.  Thunderstorms  Icing  Turbulence  Mountain Waves  Volcanic Ashes







- Airport Elevation : 13 ft
- IATA code : SNR
- Download approach charts


LFRZ - St-Nazaire

CURRENT METAR :
  • 111930Z AUTO 11008KT CAVOK 07/05 Q1021 NOSIG

EXPIRED METARs :
  • 111900Z AUTO 09008KT CAVOK 06/04 Q1021 NOSIG
  • 111830Z AUTO 13008KT CAVOK 07/05 Q1021 NOSIG
  • 111800Z AUTO 13008KT CAVOK 08/06 Q1021 NOSIG
  • 111730Z AUTO 12007KT CAVOK 08/06 Q1021 NOSIG
  • 111700Z AUTO 13005KT CAVOK 07/05 Q1022 NOSIG

TAF TAF LFRZ
Valid from the 11 at 18:00 until the 12 at 18:00 UTC


111700Z 1118/1218 14005KT CAVOK
BECMG 1122/1124 BKN005
TEMPO 1201/1204 3000 -RA BKN003
No reported NOTAMs for that airfield.



MET'MAP, your aeronautical weather chart ! - Copyright ORBIFLY December 2007 - Disclaimer

ORBIFLY MET'MAP TEAM :

Programming & Development : Alexandra Zaïnal
Concept & Development : Baudouin d'Aumeries
Co-Development & Prog : Marc-Olivier Méhu
Technical & hardware support : Manuel Goepfert

Contact : metmap@orbifly.com




SOURCES & CREDITS :

   NOAA